メインページ
METAR-TAF:

METAR-TAF

空港 :

Naval Air Station Whidbey Island (Ault Field)

オークハーバー, ワシントン, アメリカ合衆国

緯度: 48-20-57N, 経度: 122-39-02W, 海抜: 14m

現時点の気象観測

当レポートは27分前の15:56(UTC)に作成
の風 6kt
気温 18°C
湿度 64%
気圧 1016 hPa
視程: 16.1km
高度3000ftの雲はほとんどない
高度5000ftの千切れ雲あり
高度10000ftの曇り

METAR: KNUW 241556Z 17006KT 10SM FEW030 BKN050 OVC100 18/11 A3000 RMK AO2 SLP158 T01780111 $

時間: 09:23 (16:23 UTC)

予報

予報は24日の 15時(UTC)から 25日の 15時(UTC)まで有効
西/南西の風 8kt
視程10km以上
高度3500ftの雲はほとんどない
高度5000ftの雲は散在している
高度10000ftの千切れ雲あり
近辺でにわか雨
24日の 15時(UTC)から 24日の 21時(UTC)まで一時的に
変向風 6kt
視程: 9000m
高度4000ftの雲は散在している
高度5000ftの千切れ雲あり
小雨
25日の 0000時(UTC)から
西の風 10kt、最大18ktの突風を伴う
視程10km以上
高度4000ftの雲はほとんどない
高度5000ftの千切れ雲あり
25日の 08時(UTC)から 25日の 14時(UTC)まで一時的に
視程: 4800m
高度1500ftの千切れ雲あり
高度4000ftの曇り
霧雨, 靄

TAF: KNUW 2415/2515 25008KT 9999 VCSH FEW035 SCT050 BKN100 QNH2993INS TEMPO 2415/2421 VRB06KT 9000 -RA SCT040 BKN050 FM250000 27010G18KT 9999 FEW040 BKN050 QNH2997INS TEMPO 2508/2514 4800 DZ BR BKN015 OVC040 T17/2422Z T13/2514Z FS30129

4,000以上の空港の気象観測と天気予報(METAR報とTAF報)

利用可能な観測所は地図上に黄色い丸と赤い丸で示す。

丸の上にカーソルを重ねると観測所名を参照できる。

次にクリックすると気象観測と天気予報を参照できる。

マップの切り替え:黒色「×」印の緑ボタンをクリックして拡大、「-」印の緑ボタンをクリックして縮小、緑色の三角印をクリックして隣りの地図に切り替え


METAR-TAF: